Time,TemperatureF,DewpointF,PressureIn,WindDirection,WindDirectionDegrees,WindSpeedMPH,WindSpeedGustMPH,Humidity,HourlyPrecipIn,Conditions,Clouds,dailyrainin,SoftwareType,DateUTC
2013-02-23 00:04:00,36.2,26.3,30.34,West,280,0.0,25.0,67,0.00,,,0.00,Wunderground v.1.15,2013-02-23 05:04:00,
2013-02-23 00:10:00,36.4,26.1,30.34,West,280,0.0,25.0,66,0.00,,,0.00,Wunderground v.1.15,2013-02-23 05:10:00,
2013-02-23 00:15:00,36.1,25.8,30.34,West,280,0.0,25.0,66,0.00,,,0.00,Wunderground v.1.15,2013-02-23 05:15:00,
2013-02-23 00:20:00,35.5,25.3,30.35,West,280,0.0,25.0,66,0.00,,,0.00,Wunderground v.1.15,2013-02-23 05:20:00,
2013-02-23 00:25:00,35.3,25.8,30.34,West,280,0.0,25.0,68,0.00,,,0.00,Wunderground v.1.15,2013-02-23 05:25:00,
2013-02-23 00:34:00,35.8,25.5,30.34,West,280,0.0,25.0,66,0.00,,,0.00,Wunderground v.1.15,2013-02-23 05:34:00,
2013-02-23 00:40:00,35.7,25.8,30.34,West,280,0.0,25.0,67,0.00,,,0.00,Wunderground v.1.15,2013-02-23 05:40:00,
2013-02-23 00:45:00,35.7,26.2,30.33,West,280,0.0,25.0,68,0.00,,,0.00,Wunderground v.1.15,2013-02-23 05:45:00,
2013-02-23 00:50:00,35.6,25.7,30.33,West,280,0.0,25.0,67,0.00,,,0.00,Wunderground v.1.15,2013-02-23 05:50:00,
2013-02-23 00:55:00,35.5,26.0,30.33,West,280,0.0,25.0,68,0.00,,,0.00,Wunderground v.1.15,2013-02-23 05:55:00,
2013-02-23 01:00:00,35.3,25.4,30.33,West,280,0.0,25.0,67,0.00,,,0.00,Wunderground v.1.15,2013-02-23 06:00:00,
2013-02-23 01:05:00,35.0,25.5,30.33,West,280,0.0,25.0,68,0.00,,,0.00,Wunderground v.1.15,2013-02-23 06:05:00,
2013-02-23 01:10:00,34.6,25.1,30.33,West,280,0.0,25.0,68,0.00,,,0.00,Wunderground v.1.15,2013-02-23 06:10:00,
2013-02-23 01:15:00,34.6,25.5,30.33,West,280,0.0,25.0,69,0.00,,,0.00,Wunderground v.1.15,2013-02-23 06:15:00,
2013-02-23 01:20:00,34.5,25.4,30.33,West,280,0.0,25.0,69,0.00,,,0.00,Wunderground v.1.15,2013-02-23 06:20:00,
2013-02-23 01:25:00,34.6,25.5,30.33,West,280,0.0,25.0,69,0.00,,,0.00,Wunderground v.1.15,2013-02-23 06:25:00,
2013-02-23 01:30:00,35.2,26.4,30.32,West,280,0.0,25.0,70,0.00,,,0.00,Wunderground v.1.15,2013-02-23 06:30:00,
2013-02-23 01:35:00,36.3,26.4,30.32,West,280,0.0,25.0,67,0.00,,,0.00,Wunderground v.1.15,2013-02-23 06:35:00,
2013-02-23 01:40:00,36.5,26.6,30.32,West,280,0.0,25.0,67,0.00,,,0.00,Wunderground v.1.15,2013-02-23 06:40:00,
2013-02-23 01:45:00,36.8,26.9,30.32,West,280,0.0,25.0,67,0.00,,,0.00,Wunderground v.1.15,2013-02-23 06:45:00,
2013-02-23 01:54:00,37.2,26.9,30.32,West,280,0.0,25.0,66,0.00,,,0.00,Wunderground v.1.15,2013-02-23 06:54:00,
2013-02-23 02:00:00,37.3,26.6,30.32,West,280,0.0,25.0,65,0.00,,,0.00,Wunderground v.1.15,2013-02-23 07:00:00,
2013-02-23 02:05:00,37.1,26.8,30.32,West,280,0.0,25.0,66,0.00,,,0.00,Wunderground v.1.15,2013-02-23 07:05:00,
2013-02-23 02:10:00,36.9,26.6,30.32,West,280,0.0,25.0,66,0.00,,,0.00,Wunderground v.1.15,2013-02-23 07:10:00,
2013-02-23 02:15:00,36.8,26.5,30.32,West,280,0.0,25.0,66,0.00,,,0.00,Wunderground v.1.15,2013-02-23 07:15:00,
2013-02-23 02:20:00,36.8,26.9,30.32,West,280,0.0,25.0,67,0.00,,,0.00,Wunderground v.1.15,2013-02-23 07:20:00,
2013-02-23 02:25:00,36.7,26.4,30.32,West,275,0.0,25.0,66,0.00,,,0.00,Wunderground v.1.15,2013-02-23 07:25:00,
2013-02-23 02:29:00,36.6,26.3,30.31,West,275,0.0,25.0,66,0.00,,,0.00,Wunderground v.1.15,2013-02-23 07:29:00,
2013-02-23 02:34:00,36.6,26.7,30.31,West,275,0.0,25.0,67,0.00,,,0.00,Wunderground v.1.15,2013-02-23 07:34:00,
2013-02-23 02:39:00,36.6,26.7,30.31,West,273,0.0,25.0,67,0.00,,,0.00,Wunderground v.1.15,2013-02-23 07:39:00,
2013-02-23 02:45:00,36.4,26.5,30.31,West,273,0.0,25.0,67,0.00,,,0.00,Wunderground v.1.15,2013-02-23 07:45:00,
2013-02-23 02:49:00,36.4,26.5,30.31,West,273,0.0,25.0,67,0.00,,,0.00,Wunderground v.1.15,2013-02-23 07:49:00,
2013-02-23 02:54:00,36.4,26.8,30.30,West,273,0.0,25.0,68,0.00,,,0.00,Wunderground v.1.15,2013-02-23 07:54:00,
2013-02-23 03:00:00,36.4,26.5,30.30,West,273,0.0,25.0,67,0.00,,,0.00,Wunderground v.1.15,2013-02-23 08:00:00,
2013-02-23 03:05:00,36.4,26.8,30.30,West,273,0.0,25.0,68,0.00,,,0.00,Wunderground v.1.15,2013-02-23 08:05:00,
2013-02-23 03:10:00,36.2,26.6,30.30,West,273,0.0,25.0,68,0.00,,,0.00,Wunderground v.1.15,2013-02-23 08:10:00,
2013-02-23 03:15:00,36.2,27.0,30.30,West,273,0.0,25.0,69,0.00,,,0.00,Wunderground v.1.15,2013-02-23 08:15:00,
2013-02-23 03:20:00,36.2,27.0,30.30,West,273,0.0,25.0,69,0.00,,,0.00,Wunderground v.1.15,2013-02-23 08:20:00,
2013-02-23 03:25:00,36.1,27.3,30.30,West,273,0.0,25.0,70,0.00,,,0.00,Wunderground v.1.15,2013-02-23 08:25:00,
2013-02-23 03:30:00,36.0,27.2,30.30,West,273,0.0,25.0,70,0.00,,,0.00,Wunderground v.1.15,2013-02-23 08:30:00,
2013-02-23 03:34:00,35.9,27.4,30.30,West,273,0.0,25.0,71,0.00,,,0.00,Wunderground v.1.15,2013-02-23 08:34:00,
2013-02-23 03:40:00,35.7,27.6,30.29,West,273,0.0,25.0,72,0.00,,,0.00,Wunderground v.1.15,2013-02-23 08:40:00,
2013-02-23 03:45:00,35.7,27.6,30.29,West,273,0.0,25.0,72,0.00,,,0.00,Wunderground v.1.15,2013-02-23 08:45:00,
2013-02-23 03:50:00,35.7,27.6,30.29,West,273,0.0,25.0,72,0.00,,,0.00,Wunderground v.1.15,2013-02-23 08:50:00,
2013-02-23 03:55:00,35.8,27.7,30.29,West,273,0.0,25.0,72,0.00,,,0.00,Wunderground v.1.15,2013-02-23 08:55:00,
2013-02-23 04:00:00,35.7,27.6,30.29,West,273,0.0,25.0,72,0.00,,,0.00,Wunderground v.1.15,2013-02-23 09:00:00,
2013-02-23 04:04:00,35.6,28.8,30.29,West,273,0.0,25.0,76,0.00,,,0.00,Wunderground v.1.15,2013-02-23 09:04:00,
2013-02-23 04:10:00,35.7,27.9,30.29,West,273,0.0,25.0,73,0.00,,,0.00,Wunderground v.1.15,2013-02-23 09:10:00,
2013-02-23 04:15:00,35.7,27.6,30.29,West,273,0.0,25.0,72,0.00,,,0.00,Wunderground v.1.15,2013-02-23 09:15:00,
2013-02-23 04:20:00,35.6,27.5,30.29,West,273,0.0,25.0,72,0.00,,,0.00,Wunderground v.1.15,2013-02-23 09:20:00,
2013-02-23 04:25:00,35.6,27.5,30.29,West,273,0.0,25.0,72,0.00,,,0.00,Wunderground v.1.15,2013-02-23 09:25:00,
2013-02-23 04:30:00,35.7,27.6,30.29,West,273,0.0,25.0,72,0.00,,,0.00,Wunderground v.1.15,2013-02-23 09:30:00,
2013-02-23 04:35:00,35.9,27.7,30.28,West,273,0.0,25.0,72,0.00,,,0.00,Wunderground v.1.15,2013-02-23 09:35:00,
2013-02-23 04:40:00,36.3,28.1,30.28,West,273,0.0,25.0,72,0.00,,,0.00,Wunderground v.1.15,2013-02-23 09:40:00,
2013-02-23 04:44:00,36.5,28.0,30.28,West,273,0.0,25.0,71,0.00,,,0.00,Wunderground v.1.15,2013-02-23 09:44:00,
2013-02-23 04:49:00,36.7,28.2,30.28,West,273,0.0,25.0,71,0.00,,,0.00,Wunderground v.1.15,2013-02-23 09:49:00,
2013-02-23 04:54:00,36.7,27.8,30.28,West,273,0.0,25.0,70,0.00,,,0.00,Wunderground v.1.15,2013-02-23 09:54:00,
2013-02-23 04:59:00,36.6,27.7,30.27,West,267,0.0,25.0,70,0.00,,,0.00,Wunderground v.1.15,2013-02-23 09:59:00,
2013-02-23 05:04:00,36.4,27.9,30.27,West,267,0.0,25.0,71,0.00,,,0.00,Wunderground v.1.15,2013-02-23 10:04:00,
2013-02-23 05:10:00,36.5,27.6,30.27,West,262,0.0,25.0,70,0.00,,,0.00,Wunderground v.1.15,2013-02-23 10:10:00,
2013-02-23 05:15:00,36.4,27.9,30.27,West,259,1.0,25.0,71,0.00,,,0.00,Wunderground v.1.15,2013-02-23 10:15:00,
2013-02-23 05:20:00,36.1,27.6,30.27,West,259,0.0,25.0,71,0.00,,,0.00,Wunderground v.1.15,2013-02-23 10:20:00,
2013-02-23 05:25:00,36.2,28.0,30.27,West,259,0.0,25.0,72,0.00,,,0.00,Wunderground v.1.15,2013-02-23 10:25:00,
2013-02-23 05:34:00,36.4,27.9,30.27,WSW,257,0.0,25.0,71,0.00,,,0.00,Wunderground v.1.15,2013-02-23 10:34:00,
2013-02-23 05:39:00,36.4,27.5,30.27,WSW,255,1.0,1.0,70,0.00,,,0.00,Wunderground v.1.15,2013-02-23 10:39:00,
2013-02-23 05:45:00,36.2,27.7,30.27,WSW,255,1.0,25.0,71,0.00,,,0.00,Wunderground v.1.15,2013-02-23 10:45:00,
2013-02-23 05:50:00,36.2,28.0,30.27,WSW,255,0.0,25.0,72,0.00,,,0.00,Wunderground v.1.15,2013-02-23 10:50:00,
2013-02-23 05:55:00,36.4,28.2,30.27,WSW,255,0.0,25.0,72,0.00,,,0.00,Wunderground v.1.15,2013-02-23 10:55:00,
2013-02-23 06:00:00,36.5,28.3,30.27,WSW,254,0.0,25.0,72,0.00,,,0.00,Wunderground v.1.15,2013-02-23 11:00:00,
2013-02-23 06:04:00,36.4,28.2,30.27,WSW,254,0.0,25.0,72,0.00,,,0.00,Wunderground v.1.15,2013-02-23 11:04:00,
2013-02-23 06:10:00,36.6,28.8,30.27,WSW,254,0.0,25.0,73,0.00,,,0.00,Wunderground v.1.15,2013-02-23 11:10:00,
2013-02-23 06:15:00,36.6,28.4,30.27,SSW,211,0.0,25.0,72,0.00,,,0.00,Wunderground v.1.15,2013-02-23 11:15:00,
2013-02-23 06:20:00,36.5,28.3,30.27,SSE,164,0.0,25.0,72,0.00,,,0.00,Wunderground v.1.15,2013-02-23 11:20:00,
2013-02-23 06:25:00,36.3,28.5,30.26,SSE,164,0.0,25.0,73,0.00,,,0.00,Wunderground v.1.15,2013-02-23 11:25:00,
2013-02-23 06:30:00,36.3,28.5,30.26,South,176,1.0,25.0,73,0.00,,,0.00,Wunderground v.1.15,2013-02-23 11:30:00,
2013-02-23 06:39:00,36.2,28.4,30.26,South,171,0.0,25.0,73,0.00,,,0.00,Wunderground v.1.15,2013-02-23 11:39:00,
2013-02-23 06:44:00,36.2,28.7,30.26,South,171,0.0,25.0,74,0.00,,,0.00,Wunderground v.1.15,2013-02-23 11:44:00,
2013-02-23 06:50:00,36.4,28.6,30.25,SSE,167,0.0,25.0,73,0.00,,,0.00,Wunderground v.1.15,2013-02-23 11:50:00,
2013-02-23 06:55:00,36.4,28.6,30.26,South,169,1.0,25.0,73,0.00,,,0.00,Wunderground v.1.15,2013-02-23 11:55:00,
2013-02-23 06:59:00,36.4,28.9,30.26,South,169,1.0,1.0,74,0.00,,,0.00,Wunderground v.1.15,2013-02-23 11:59:00,
2013-02-23 07:04:00,36.3,28.8,30.26,South,169,1.0,3.0,74,0.00,,,0.00,Wunderground v.1.15,2013-02-23 12:04:00,
2013-02-23 07:09:00,36.4,28.9,30.26,South,169,0.0,25.0,74,0.00,,,0.00,Wunderground v.1.15,2013-02-23 12:09:00,
2013-02-23 07:14:00,36.4,29.2,30.26,South,169,0.0,25.0,75,0.00,,,0.00,Wunderground v.1.15,2013-02-23 12:14:00,
2013-02-23 07:19:00,36.4,29.2,30.26,South,181,0.0,25.0,75,0.00,,,0.00,Wunderground v.1.15,2013-02-23 12:19:00,
2013-02-23 07:25:00,36.5,29.3,30.26,SSE,168,0.0,25.0,75,0.00,,,0.00,Wunderground v.1.15,2013-02-23 12:25:00,
2013-02-23 07:30:00,36.6,29.4,30.26,South,172,0.0,25.0,75,0.00,,,0.00,Wunderground v.1.15,2013-02-23 12:30:00,
2013-02-23 07:35:00,36.6,29.4,30.26,SSE,165,0.0,25.0,75,0.00,,,0.00,Wunderground v.1.15,2013-02-23 12:35:00,
2013-02-23 07:40:00,36.6,29.4,30.26,SSE,156,1.0,1.0,75,0.00,,,0.00,Wunderground v.1.15,2013-02-23 12:40:00,
2013-02-23 07:45:00,36.6,29.4,30.26,SSE,158,1.0,4.0,75,0.00,,,0.00,Wunderground v.1.15,2013-02-23 12:45:00,
2013-02-23 07:54:00,36.7,29.8,30.26,SSE,158,1.0,25.0,76,0.00,,,0.00,Wunderground v.1.15,2013-02-23 12:54:00,
2013-02-23 08:00:00,37.0,30.1,30.26,SSE,158,0.0,25.0,76,0.00,,,0.00,Wunderground v.1.15,2013-02-23 13:00:00,
2013-02-23 08:05:00,37.3,30.1,30.26,SSE,158,0.0,25.0,75,0.00,,,0.00,Wunderground v.1.15,2013-02-23 13:05:00,
2013-02-23 08:10:00,37.3,30.1,30.26,SSE,158,0.0,25.0,75,0.00,,,0.00,Wunderground v.1.15,2013-02-23 13:10:00,
2013-02-23 08:14:00,37.4,30.2,30.26,SSE,161,0.0,25.0,75,0.00,,,0.00,Wunderground v.1.15,2013-02-23 13:14:00,
2013-02-23 08:20:00,37.5,30.3,30.26,SSE,161,0.0,25.0,75,0.00,,,0.00,Wunderground v.1.15,2013-02-23 13:20:00,
2013-02-23 08:25:00,37.6,30.4,30.26,SSE,161,0.0,25.0,75,0.00,,,0.00,Wunderground v.1.15,2013-02-23 13:25:00,
2013-02-23 08:30:00,37.7,30.5,30.26,SSE,161,0.0,25.0,75,0.00,,,0.00,Wunderground v.1.15,2013-02-23 13:30:00,
2013-02-23 08:35:00,37.6,30.4,30.26,South,175,1.0,25.0,75,0.00,,,0.00,Wunderground v.1.15,2013-02-23 13:35:00,
2013-02-23 08:40:00,37.6,30.4,30.25,SSW,198,1.0,1.0,75,0.00,,,0.00,Wunderground v.1.15,2013-02-23 13:40:00,
2013-02-23 08:44:00,37.5,30.6,30.25,South,171,1.0,2.0,76,0.00,,,0.00,Wunderground v.1.15,2013-02-23 13:44:00,
2013-02-23 08:49:00,37.4,30.5,30.25,SSE,161,1.0,25.0,76,0.00,,,0.00,Wunderground v.1.15,2013-02-23 13:49:00,
2013-02-23 08:55:00,37.3,30.4,30.25,SSE,159,1.0,25.0,76,0.00,,,0.00,Wunderground v.1.15,2013-02-23 13:55:00,
2013-02-23 09:00:00,37.3,30.4,30.25,SSE,153,1.0,1.0,76,0.00,,,0.00,Wunderground v.1.15,2013-02-23 14:00:00,
2013-02-23 09:05:00,37.3,30.4,30.24,SSE,153,1.0,2.0,76,0.00,,,0.00,Wunderground v.1.15,2013-02-23 14:05:00,
2013-02-23 09:10:00,37.4,30.8,30.24,SSE,161,1.0,25.0,77,0.00,,,0.00,Wunderground v.1.15,2013-02-23 14:10:00,
2013-02-23 09:19:00,37.5,30.9,30.24,South,169,2.0,2.0,77,0.00,,,0.00,Wunderground v.1.15,2013-02-23 14:19:00,
2013-02-23 09:25:00,37.6,31.0,30.24,SSE,148,1.0,25.0,77,0.00,,,0.00,Wunderground v.1.15,2013-02-23 14:25:00,
2013-02-23 09:30:00,37.8,31.2,30.24,SSE,156,0.0,25.0,77,0.00,,,0.00,Wunderground v.1.15,2013-02-23 14:30:00,
2013-02-23 09:35:00,37.9,31.0,30.24,South,186,1.0,25.0,76,0.00,,,0.00,Wunderground v.1.15,2013-02-23 14:35:00,
2013-02-23 09:40:00,37.9,31.0,30.24,SSE,153,1.0,25.0,76,0.00,,,0.00,Wunderground v.1.15,2013-02-23 14:40:00,
2013-02-23 09:45:00,38.0,30.8,30.24,South,183,1.0,25.0,75,0.00,,,0.00,Wunderground v.1.15,2013-02-23 14:45:00,
2013-02-23 09:55:00,38.1,30.9,30.23,SSE,159,1.0,25.0,75,0.00,,,0.00,Wunderground v.1.15,2013-02-23 14:55:00,
2013-02-23 10:00:00,38.2,31.0,30.23,SSW,197,1.0,25.0,75,0.00,,,0.00,Wunderground v.1.15,2013-02-23 15:00:00,
2013-02-23 10:05:00,38.3,31.1,30.23,SW,235,1.0,25.0,75,0.00,,,0.00,Wunderground v.1.15,2013-02-23 15:05:00,
2013-02-23 10:10:00,38.4,30.8,30.22,SSW,207,1.0,25.0,74,0.00,,,0.00,Wunderground v.1.15,2013-02-23 15:10:00,
2013-02-23 10:19:00,38.7,30.8,30.23,South,190,1.0,1.0,73,0.00,,,0.00,Wunderground v.1.15,2013-02-23 15:19:00,
2013-02-23 10:25:00,38.6,30.7,30.23,WSW,239,1.0,25.0,73,0.00,,,0.00,Wunderground v.1.15,2013-02-23 15:25:00,
2013-02-23 10:30:00,38.8,30.9,30.23,SSE,148,1.0,25.0,73,0.00,,,0.00,Wunderground v.1.15,2013-02-23 15:30:00,
2013-02-23 10:40:00,38.9,30.6,30.22,SSE,159,2.0,2.0,72,0.00,,,0.00,Wunderground v.1.15,2013-02-23 15:40:00,
2013-02-23 10:45:00,39.2,30.9,30.22,SSE,155,2.0,25.0,72,0.00,,,0.00,Wunderground v.1.15,2013-02-23 15:45:00,
2013-02-23 10:50:00,39.4,30.8,30.22,South,190,1.0,25.0,71,0.00,,,0.00,Wunderground v.1.15,2013-02-23 15:50:00,
2013-02-23 10:55:00,39.4,30.4,30.22,South,173,2.0,25.0,70,0.00,,,0.00,Wunderground v.1.15,2013-02-23 15:55:00,
2013-02-23 11:04:00,39.4,30.4,30.20,SSW,195,2.0,25.0,70,0.00,,,0.00,Wunderground v.1.15,2013-02-23 16:04:00,
2013-02-23 11:09:00,39.6,30.6,30.20,South,177,2.0,25.0,70,0.00,,,0.00,Wunderground v.1.15,2013-02-23 16:09:00,
2013-02-23 11:14:00,39.7,30.4,30.20,SSE,167,2.0,25.0,69,0.00,,,0.00,Wunderground v.1.15,2013-02-23 16:14:00,
2013-02-23 11:19:00,39.6,30.3,30.20,SE,140,2.0,2.0,69,0.00,,,0.00,Wunderground v.1.15,2013-02-23 16:19:00,
2013-02-23 11:24:00,39.5,30.2,30.20,SSE,164,2.0,25.0,69,0.00,,,0.00,Wunderground v.1.15,2013-02-23 16:24:00,
2013-02-23 11:29:00,39.4,30.1,30.19,SSE,168,3.0,3.0,69,0.00,,,0.00,Wunderground v.1.15,2013-02-23 16:29:00,
2013-02-23 11:35:00,39.5,30.2,30.19,SSE,164,3.0,7.0,69,0.00,,,0.00,Wunderground v.1.15,2013-02-23 16:35:00,
2013-02-23 11:40:00,39.4,30.4,30.18,SW,217,3.0,25.0,70,0.00,,,0.00,Wunderground v.1.15,2013-02-23 16:40:00,
2013-02-23 11:45:00,39.5,30.5,30.18,South,184,3.0,25.0,70,0.00,,,0.00,Wunderground v.1.15,2013-02-23 16:45:00,
2013-02-23 11:50:00,39.6,30.6,30.18,SE,145,3.0,25.0,70,0.00,,,0.00,Wunderground v.1.15,2013-02-23 16:50:00,
2013-02-23 12:00:00,39.7,30.7,30.18,SSE,150,2.0,25.0,70,0.00,,,0.00,Wunderground v.1.15,2013-02-23 17:00:00,
2013-02-23 12:05:00,39.8,30.8,30.17,SW,216,2.0,25.0,70,0.00,,,0.00,Wunderground v.1.15,2013-02-23 17:05:00,
2013-02-23 12:10:00,40.0,30.6,30.17,SSW,211,1.0,25.0,69,0.00,,,0.00,Wunderground v.1.15,2013-02-23 17:10:00,
2013-02-23 12:15:00,40.2,30.8,30.17,South,170,1.0,25.0,69,0.00,,,0.00,Wunderground v.1.15,2013-02-23 17:15:00,
2013-02-23 12:20:00,40.2,30.8,30.17,SSE,158,1.0,25.0,69,0.00,,,0.00,Wunderground v.1.15,2013-02-23 17:20:00,
2013-02-23 12:25:00,40.4,30.7,30.17,SSE,165,1.0,25.0,68,0.00,,,0.00,Wunderground v.1.15,2013-02-23 17:25:00,
2013-02-23 12:30:00,40.7,31.3,30.16,South,169,1.0,1.0,69,0.00,,,0.00,Wunderground v.1.15,2013-02-23 17:30:00,
2013-02-23 12:34:00,40.9,31.1,30.16,SSE,163,1.0,2.0,68,0.00,,,0.00,Wunderground v.1.15,2013-02-23 17:34:00,
2013-02-23 12:40:00,40.7,31.0,30.16,SSW,200,2.0,25.0,68,0.00,,,0.00,Wunderground v.1.15,2013-02-23 17:40:00,
2013-02-23 12:44:00,40.7,31.3,30.15,SSW,201,2.0,25.0,69,0.00,,,0.00,Wunderground v.1.15,2013-02-23 17:44:00,
2013-02-23 12:49:00,40.9,31.1,30.15,SE,132,1.0,25.0,68,0.00,,,0.00,Wunderground v.1.15,2013-02-23 17:49:00,
2013-02-23 12:55:00,41.0,31.2,30.14,SSE,159,2.0,25.0,68,0.00,,,0.00,Wunderground v.1.15,2013-02-23 17:55:00,
2013-02-23 13:00:00,41.1,31.3,30.14,SE,134,2.0,25.0,68,0.00,,,0.00,Wunderground v.1.15,2013-02-23 18:00:00,
2013-02-23 13:05:00,41.1,31.3,30.14,SSE,151,2.0,25.0,68,0.00,,,0.00,Wunderground v.1.15,2013-02-23 18:05:00,
2013-02-23 13:10:00,41.1,31.3,30.14,ESE,113,1.0,25.0,68,0.00,,,0.00,Wunderground v.1.15,2013-02-23 18:10:00,
2013-02-23 13:15:00,41.0,31.2,30.14,SSE,159,2.0,25.0,68,0.00,,,0.00,Wunderground v.1.15,2013-02-23 18:15:00,
2013-02-23 13:19:00,40.6,31.2,30.15,SSE,151,3.0,3.0,69,0.00,,,0.00,Wunderground v.1.15,2013-02-23 18:19:00,
2013-02-23 13:25:00,40.5,31.5,30.15,SSE,157,2.0,25.0,70,0.00,,,0.00,Wunderground v.1.15,2013-02-23 18:25:00,
2013-02-23 13:30:00,40.5,31.8,30.14,SSE,157,2.0,2.0,71,0.00,,,0.00,Wunderground v.1.15,2013-02-23 18:30:00,
2013-02-23 13:35:00,40.4,31.4,30.14,SSE,155,3.0,6.0,70,0.00,,,0.00,Wunderground v.1.15,2013-02-23 18:35:00,
2013-02-23 13:40:00,40.1,31.8,30.14,SSE,159,3.0,3.0,72,0.00,,,0.00,Wunderground v.1.15,2013-02-23 18:40:00,
2013-02-23 13:45:00,40.1,31.8,30.15,SSE,154,3.0,25.0,72,0.00,,,0.00,Wunderground v.1.15,2013-02-23 18:45:00,
2013-02-23 13:50:00,40.1,31.8,30.15,SE,132,3.0,25.0,72,0.00,,,0.00,Wunderground v.1.15,2013-02-23 18:50:00,
2013-02-23 13:55:00,40.1,31.4,30.14,SSE,159,3.0,25.0,71,0.00,,,0.00,Wunderground v.1.15,2013-02-23 18:55:00,
2013-02-23 14:00:00,40.2,31.9,30.14,SSE,150,2.0,25.0,72,0.00,,,0.00,Wunderground v.1.15,2013-02-23 19:00:00,
2013-02-23 14:10:00,40.4,31.7,30.13,SSE,151,2.0,2.0,71,0.00,,,0.00,Wunderground v.1.15,2013-02-23 19:10:00,
2013-02-23 14:15:00,40.4,31.4,30.14,SSE,152,2.0,3.0,70,0.00,,,0.00,Wunderground v.1.15,2013-02-23 19:15:00,
2013-02-23 14:25:00,40.4,30.7,30.14,South,177,2.0,3.0,68,0.00,,,0.00,Wunderground v.1.15,2013-02-23 19:25:00,
2013-02-23 14:30:00,40.4,30.7,30.13,SE,146,2.0,2.0,68,0.00,,,0.00,Wunderground v.1.15,2013-02-23 19:30:00,
2013-02-23 14:34:00,40.5,30.8,30.13,SE,142,2.0,25.0,68,0.00,,,0.00,Wunderground v.1.15,2013-02-23 19:34:00,
2013-02-23 14:39:00,40.7,31.0,30.13,SE,141,2.0,25.0,68,0.00,,,0.00,Wunderground v.1.15,2013-02-23 19:39:00,
2013-02-23 14:45:00,40.8,31.1,30.13,SSE,168,1.0,25.0,68,0.00,,,0.00,Wunderground v.1.15,2013-02-23 19:45:00,
2013-02-23 14:50:00,40.8,31.1,30.13,SE,136,2.0,2.0,68,0.00,,,0.00,Wunderground v.1.15,2013-02-23 19:50:00,
2013-02-23 14:55:00,40.8,31.1,30.13,SE,140,2.0,4.0,68,0.00,,,0.00,Wunderground v.1.15,2013-02-23 19:55:00,
2013-02-23 15:00:00,40.7,31.0,30.13,SSE,150,2.0,25.0,68,0.00,,,0.00,Wunderground v.1.15,2013-02-23 20:00:00,
2013-02-23 15:05:00,40.8,31.4,30.12,SSE,148,2.0,25.0,69,0.00,,,0.00,Wunderground v.1.15,2013-02-23 20:05:00,
2013-02-23 15:10:00,40.8,31.4,30.12,SE,146,2.0,25.0,69,0.00,,,0.00,Wunderground v.1.15,2013-02-23 20:10:00,
2013-02-23 15:20:00,40.3,31.3,30.12,South,180,4.0,4.0,70,0.00,,,0.00,Wunderground v.1.15,2013-02-23 20:20:00,
2013-02-23 15:25:00,40.3,31.6,30.12,SSW,196,3.0,25.0,71,0.00,,,0.00,Wunderground v.1.15,2013-02-23 20:25:00,
2013-02-23 15:30:00,40.3,31.6,30.12,SSE,159,2.0,25.0,71,0.00,,,0.00,Wunderground v.1.15,2013-02-23 20:30:00,
2013-02-23 15:35:00,40.1,31.4,30.12,SE,136,3.0,25.0,71,0.00,,,0.00,Wunderground v.1.15,2013-02-23 20:35:00,
2013-02-23 15:40:00,39.9,31.6,30.11,SE,136,4.0,25.0,72,0.00,,,0.00,Wunderground v.1.15,2013-02-23 20:40:00,
2013-02-23 15:45:00,39.9,31.6,30.11,South,169,3.0,25.0,72,0.00,,,0.00,Wunderground v.1.15,2013-02-23 20:45:00,
2013-02-23 15:50:00,40.1,31.8,30.11,SE,128,2.0,25.0,72,0.00,,,0.00,Wunderground v.1.15,2013-02-23 20:50:00,
2013-02-23 15:55:00,40.0,31.7,30.10,SSE,156,3.0,25.0,72,0.00,,,0.00,Wunderground v.1.15,2013-02-23 20:55:00,
2013-02-23 16:00:00,39.9,31.9,30.10,SSE,151,3.0,25.0,73,0.00,,,0.00,Wunderground v.1.15,2013-02-23 21:00:00,
2013-02-23 16:10:00,39.9,31.9,30.10,SSE,157,3.0,3.0,73,0.00,,,0.00,Wunderground v.1.15,2013-02-23 21:10:00,
2013-02-23 16:15:00,39.7,31.8,30.09,SE,136,4.0,4.0,73,0.00,,,0.00,Wunderground v.1.15,2013-02-23 21:15:00,
2013-02-23 16:20:00,39.6,32.0,30.10,SSE,150,4.0,4.0,74,0.00,,,0.00,Wunderground v.1.15,2013-02-23 21:20:00,
2013-02-23 16:30:00,39.6,31.7,30.10,SE,146,3.0,25.0,73,0.00,,,0.00,Wunderground v.1.15,2013-02-23 21:30:00,
2013-02-23 16:35:00,39.4,31.5,30.10,South,178,4.0,25.0,73,0.00,,,0.00,Wunderground v.1.15,2013-02-23 21:35:00,
2013-02-23 16:40:00,39.2,31.6,30.09,SSE,147,3.0,25.0,74,0.00,,,0.00,Wunderground v.1.15,2013-02-23 21:40:00,
2013-02-23 16:45:00,39.1,31.5,30.08,South,188,4.0,25.0,74,0.00,,,0.00,Wunderground v.1.15,2013-02-23 21:45:00,
2013-02-23 16:50:00,38.9,31.3,30.09,SSE,155,4.0,4.0,74,0.00,,,0.00,Wunderground v.1.15,2013-02-23 21:50:00,
2013-02-23 16:55:00,38.9,31.3,30.09,SSE,154,3.0,25.0,74,0.00,,,0.00,Wunderground v.1.15,2013-02-23 21:55:00,
2013-02-23 17:00:00,38.8,31.2,30.09,South,173,2.0,25.0,74,0.00,,,0.00,Wunderground v.1.15,2013-02-23 22:00:00,
2013-02-23 17:10:00,38.8,31.2,30.09,SE,138,3.0,3.0,74,0.00,,,0.00,Wunderground v.1.15,2013-02-23 22:10:00,
2013-02-23 17:15:00,38.8,31.2,30.09,SSE,155,3.0,25.0,74,0.00,,,0.00,Wunderground v.1.15,2013-02-23 22:15:00,
2013-02-23 17:20:00,38.8,31.2,30.09,SSE,157,3.0,25.0,74,0.00,,,0.00,Wunderground v.1.15,2013-02-23 22:20:00,
2013-02-23 17:25:00,38.7,31.1,30.08,SE,144,3.0,25.0,74,0.00,,,0.00,Wunderground v.1.15,2013-02-23 22:25:00,
2013-02-23 17:30:00,38.4,31.2,30.09,SSE,153,4.0,25.0,75,0.00,,,0.00,Wunderground v.1.15,2013-02-23 22:30:00,
2013-02-23 17:35:00,38.4,31.2,30.08,SSE,147,3.0,25.0,75,0.00,,,0.00,Wunderground v.1.15,2013-02-23 22:35:00,
2013-02-23 17:45:00,38.3,31.4,30.08,SSE,155,3.0,4.0,76,0.00,,,0.00,Wunderground v.1.15,2013-02-23 22:45:00,
2013-02-23 17:50:00,38.2,31.3,30.08,South,169,3.0,25.0,76,0.00,,,0.00,Wunderground v.1.15,2013-02-23 22:50:00,
2013-02-23 17:55:00,37.8,31.6,30.08,SSE,148,3.0,25.0,78,0.00,,,0.00,Wunderground v.1.15,2013-02-23 22:55:00,
2013-02-23 18:00:00,37.3,31.7,30.07,SE,146,3.0,3.0,80,0.00,,,0.00,Wunderground v.1.15,2013-02-23 23:00:00,
2013-02-23 18:05:00,36.9,31.6,30.06,SSE,165,3.0,5.0,81,0.00,,,0.00,Wunderground v.1.15,2013-02-23 23:05:00,
2013-02-23 18:10:00,36.5,31.8,30.07,SE,139,2.0,2.0,83,0.00,,,0.00,Wunderground v.1.15,2013-02-23 23:10:00,
2013-02-23 18:14:00,36.3,31.9,30.07,SSE,156,2.0,25.0,84,0.00,,,0.00,Wunderground v.1.15,2013-02-23 23:14:00,
2013-02-23 18:19:00,36.2,32.1,30.07,SSE,159,2.0,2.0,85,0.00,,,0.01,Wunderground v.1.15,2013-02-23 23:19:00,
2013-02-23 18:24:00,36.1,32.3,30.07,SE,142,2.0,5.0,86,0.00,,,0.01,Wunderground v.1.15,2013-02-23 23:24:00,
2013-02-23 18:30:00,35.9,32.4,30.07,South,180,2.0,2.0,87,0.00,,,0.01,Wunderground v.1.15,2013-02-23 23:30:00,
2013-02-23 18:35:00,36.0,32.8,30.07,SSE,152,2.0,5.0,88,0.00,,,0.01,Wunderground v.1.15,2013-02-23 23:35:00,
2013-02-23 18:40:00,35.7,32.2,30.07,SSE,153,2.0,25.0,87,0.00,,,0.01,Wunderground v.1.15,2013-02-23 23:40:00,
2013-02-23 18:45:00,35.6,32.4,30.06,SSE,157,3.0,25.0,88,0.00,,,0.01,Wunderground v.1.15,2013-02-23 23:45:00,
2013-02-23 18:55:00,35.6,32.7,30.06,SSE,147,2.0,25.0,89,0.00,,,0.02,Wunderground v.1.15,2013-02-23 23:55:00,
2013-02-23 19:00:00,35.7,33.1,30.06,SE,143,2.0,25.0,90,0.00,,,0.02,Wunderground v.1.15,2013-02-24 00:00:00,
2013-02-23 19:05:00,35.6,32.7,30.05,SSE,154,3.0,25.0,89,0.00,,,0.02,Wunderground v.1.15,2013-02-24 00:05:00,
2013-02-23 19:10:00,35.4,32.5,30.05,SE,146,4.0,4.0,89,0.00,,,0.02,Wunderground v.1.15,2013-02-24 00:10:00,
2013-02-23 19:15:00,35.2,32.6,30.05,SSE,155,4.0,25.0,90,0.00,,,0.02,Wunderground v.1.15,2013-02-24 00:15:00,
2013-02-23 19:20:00,35.1,32.5,30.05,SSE,153,4.0,4.0,90,0.00,,,0.02,Wunderground v.1.15,2013-02-24 00:20:00,
2013-02-23 19:25:00,35.0,32.6,30.05,SSE,159,4.0,25.0,91,0.00,,,0.02,Wunderground v.1.15,2013-02-24 00:25:00,
2013-02-23 19:30:00,35.1,32.7,30.05,SSE,155,4.0,4.0,91,0.00,,,0.03,Wunderground v.1.15,2013-02-24 00:30:00,
2013-02-23 19:35:00,35.2,32.8,30.05,SSE,165,2.0,25.0,91,0.00,,,0.03,Wunderground v.1.15,2013-02-24 00:35:00,
2013-02-23 19:40:00,35.4,33.0,30.05,SE,144,1.0,1.0,91,0.00,,,0.03,Wunderground v.1.15,2013-02-24 00:40:00,
2013-02-23 19:45:00,35.6,33.2,30.05,SE,128,1.0,3.0,91,0.00,,,0.03,Wunderground v.1.15,2013-02-24 00:45:00,
2013-02-23 19:50:00,35.5,33.1,30.04,SSE,150,2.0,2.0,91,0.00,,,0.03,Wunderground v.1.15,2013-02-24 00:50:00,
2013-02-23 19:55:00,35.6,33.2,30.04,SSE,152,2.0,4.0,91,0.00,,,0.03,Wunderground v.1.15,2013-02-24 00:55:00,
2013-02-23 20:00:00,35.6,33.2,30.05,SSE,161,1.0,25.0,91,0.00,,,0.04,Wunderground v.1.15,2013-02-24 01:00:00,
2013-02-23 20:05:00,35.6,33.2,30.04,SSE,153,2.0,25.0,91,0.00,,,0.04,Wunderground v.1.15,2013-02-24 01:05:00,
2013-02-23 20:10:00,35.4,33.0,30.03,SSE,159,3.0,25.0,91,0.00,,,0.04,Wunderground v.1.15,2013-02-24 01:10:00,
2013-02-23 20:15:00,35.3,32.9,30.03,SSE,161,3.0,25.0,91,0.00,,,0.04,Wunderground v.1.15,2013-02-24 01:15:00,
2013-02-23 20:25:00,35.4,33.0,30.03,SE,144,2.0,25.0,91,0.00,,,0.04,Wunderground v.1.15,2013-02-24 01:25:00,
2013-02-23 20:30:00,35.4,33.3,30.02,SE,146,2.0,2.0,92,0.00,,,0.05,Wunderground v.1.15,2013-02-24 01:30:00,
2013-02-23 20:35:00,35.5,33.4,30.02,SE,129,2.0,4.0,92,0.00,,,0.05,Wunderground v.1.15,2013-02-24 01:35:00,
2013-02-23 20:40:00,35.8,33.7,30.02,SE,126,2.0,25.0,92,0.00,,,0.05,Wunderground v.1.15,2013-02-24 01:40:00,
2013-02-23 20:45:00,35.9,33.5,30.03,SE,146,2.0,25.0,91,0.00,,,0.05,Wunderground v.1.15,2013-02-24 01:45:00,
2013-02-23 20:49:00,36.1,34.0,30.02,SE,128,2.0,25.0,92,0.00,,,0.05,Wunderground v.1.15,2013-02-24 01:49:00,
2013-02-23 20:54:00,36.3,34.2,30.01,SE,134,2.0,25.0,92,0.00,,,0.05,Wunderground v.1.15,2013-02-24 01:54:00,
2013-02-23 21:00:00,36.3,33.9,30.02,SSE,147,2.0,2.0,91,0.00,,,0.05,Wunderground v.1.15,2013-02-24 02:00:00,
2013-02-23 21:05:00,36.4,34.3,30.02,SSE,155,1.0,25.0,92,0.00,,,0.05,Wunderground v.1.15,2013-02-24 02:05:00,
2013-02-23 21:10:00,36.7,34.6,30.02,SSE,148,1.0,25.0,92,0.00,,,0.05,Wunderground v.1.15,2013-02-24 02:10:00,
2013-02-23 21:15:00,36.7,34.3,30.01,SSE,153,1.0,25.0,91,0.00,,,0.06,Wunderground v.1.15,2013-02-24 02:15:00,
2013-02-23 21:20:00,36.6,34.2,30.00,SSE,158,2.0,2.0,91,0.00,,,0.06,Wunderground v.1.15,2013-02-24 02:20:00,
2013-02-23 21:24:00,36.6,34.2,30.00,SE,127,2.0,25.0,91,0.00,,,0.06,Wunderground v.1.15,2013-02-24 02:24:00,
2013-02-23 21:30:00,36.6,34.2,30.00,SE,143,2.0,25.0,91,0.00,,,0.06,Wunderground v.1.15,2013-02-24 02:30:00,
2013-02-23 21:35:00,36.5,34.1,30.00,SSE,158,2.0,25.0,91,0.00,,,0.06,Wunderground v.1.15,2013-02-24 02:35:00,
2013-02-23 21:40:00,36.6,34.2,29.99,SE,126,1.0,1.0,91,0.00,,,0.06,Wunderground v.1.15,2013-02-24 02:40:00,
2013-02-23 21:45:00,36.6,34.2,29.99,ESE,112,2.0,2.0,91,0.00,,,0.07,Wunderground v.1.15,2013-02-24 02:45:00,
2013-02-23 21:54:00,36.4,34.0,29.98,SE,144,3.0,25.0,91,0.00,,,0.07,Wunderground v.1.15,2013-02-24 02:54:00,
2013-02-23 21:59:00,36.3,33.9,29.98,SE,146,3.0,3.0,91,0.00,,,0.07,Wunderground v.1.15,2013-02-24 02:59:00,
2013-02-23 22:05:00,36.3,33.9,29.98,SE,144,2.0,5.0,91,0.00,,,0.08,Wunderground v.1.15,2013-02-24 03:05:00,
2013-02-23 22:10:00,36.2,33.8,29.97,SE,138,2.0,25.0,91,0.00,,,0.08,Wunderground v.1.15,2013-02-24 03:10:00,
2013-02-23 22:15:00,36.1,33.7,29.97,SE,144,3.0,25.0,91,0.05,,,0.09,Wunderground v.1.15,2013-02-24 03:15:00,
2013-02-23 22:20:00,36.0,33.6,29.95,SE,138,4.0,25.0,91,0.05,,,0.09,Wunderground v.1.15,2013-02-24 03:20:00,
2013-02-23 22:25:00,36.0,33.9,29.95,ESE,118,2.0,25.0,92,0.17,,,0.11,Wunderground v.1.15,2013-02-24 03:25:00,
2013-02-23 22:30:00,36.1,34.0,29.95,ESE,123,3.0,25.0,92,0.13,,,0.12,Wunderground v.1.15,2013-02-24 03:30:00,
2013-02-23 22:35:00,36.2,34.1,29.96,SE,127,2.0,25.0,92,0.16,,,0.13,Wunderground v.1.15,2013-02-24 03:35:00,
2013-02-23 22:39:00,36.4,34.3,29.96,SE,136,2.0,25.0,92,0.09,,,0.14,Wunderground v.1.15,2013-02-24 03:39:00,
2013-02-23 22:44:00,36.5,34.7,29.95,SE,130,3.0,25.0,93,0.09,,,0.14,Wunderground v.1.15,2013-02-24 03:44:00,
2013-02-23 22:50:00,36.6,34.5,29.95,SE,135,3.0,25.0,92,0.06,,,0.15,Wunderground v.1.15,2013-02-24 03:50:00,
2013-02-23 22:55:00,36.7,34.6,29.95,SE,131,3.0,25.0,92,0.12,,,0.15,Wunderground v.1.15,2013-02-24 03:55:00,
2013-02-23 23:00:00,36.7,34.9,29.95,SE,143,2.0,2.0,93,0.11,,,0.16,Wunderground v.1.15,2013-02-24 04:00:00,
2013-02-23 23:05:00,36.8,35.0,29.95,SE,132,2.0,6.0,93,0.08,,,0.17,Wunderground v.1.15,2013-02-24 04:05:00,
2013-02-23 23:10:00,36.8,35.0,29.95,SE,130,3.0,25.0,93,0.08,,,0.17,Wunderground v.1.15,2013-02-24 04:10:00,
2013-02-23 23:20:00,36.6,34.8,29.94,East,99,5.0,25.0,93,0.12,,,0.19,Wunderground v.1.15,2013-02-24 04:20:00,
2013-02-23 23:25:00,36.6,34.8,29.94,ESE,107,4.0,25.0,93,0.08,,,0.19,Wunderground v.1.15,2013-02-24 04:25:00,
2013-02-23 23:30:00,36.8,35.2,29.93,ESE,112,3.0,25.0,94,0.05,,,0.19,Wunderground v.1.15,2013-02-24 04:30:00,
2013-02-23 23:35:00,37.0,35.2,29.93,ESE,106,3.0,25.0,93,0.05,,,0.20,Wunderground v.1.15,2013-02-24 04:35:00,
2013-02-23 23:40:00,37.0,35.2,29.93,ENE,78,4.0,25.0,93,0.05,,,0.20,Wunderground v.1.15,2013-02-24 04:40:00,
2013-02-23 23:45:00,37.0,35.2,29.92,ESE,107,4.0,25.0,93,0.04,,,0.20,Wunderground v.1.15,2013-02-24 04:45:00,
2013-02-23 23:50:00,37.1,35.5,29.92,ESE,123,4.0,4.0,94,0.04,,,0.21,Wunderground v.1.15,2013-02-24 04:50:00,